createdAt,value
2022-08-31T00:00:03.410Z,16.00
2022-08-31T00:01:03.436Z,15.90
2022-08-31T00:02:03.449Z,15.90
2022-08-31T00:03:03.601Z,15.90
2022-08-31T00:04:02.598Z,15.90
2022-08-31T00:05:02.770Z,15.90
2022-08-31T00:06:02.672Z,15.90
2022-08-31T00:07:02.758Z,15.90
2022-08-31T00:08:02.794Z,15.90
2022-08-31T00:09:02.843Z,15.90
2022-08-31T00:10:03.242Z,15.90
2022-08-31T00:11:03.604Z,15.80
2022-08-31T00:12:02.714Z,15.80
2022-08-31T00:13:03.070Z,15.80
2022-08-31T00:14:03.064Z,15.80
2022-08-31T00:15:02.999Z,15.80
2022-08-31T00:16:03.128Z,15.80
2022-08-31T00:17:03.236Z,15.80
2022-08-31T00:18:03.183Z,15.80
2022-08-31T00:19:03.237Z,15.80
2022-08-31T00:20:03.212Z,15.80
2022-08-31T00:21:03.242Z,15.70
2022-08-31T00:22:03.349Z,15.70
2022-08-31T00:23:03.314Z,15.70
2022-08-31T00:24:03.406Z,15.70
2022-08-31T00:25:03.414Z,15.70
2022-08-31T00:26:03.530Z,15.60
2022-08-31T00:27:03.449Z,15.60
2022-08-31T00:28:03.556Z,15.60
2022-08-31T00:29:02.685Z,15.60
2022-08-31T00:30:02.608Z,15.60
2022-08-31T00:31:02.777Z,15.60
2022-08-31T00:32:02.752Z,15.50
2022-08-31T00:33:02.847Z,15.50
2022-08-31T00:34:02.825Z,15.50
2022-08-31T00:35:02.881Z,15.50
2022-08-31T00:36:02.982Z,15.50
2022-08-31T00:37:03.018Z,15.50
2022-08-31T00:38:03.096Z,15.50
2022-08-31T00:39:03.085Z,15.50
2022-08-31T00:40:03.082Z,15.50
2022-08-31T00:41:03.065Z,15.50
2022-08-31T00:42:03.148Z,15.50
2022-08-31T00:43:03.138Z,15.50
2022-08-31T00:44:03.287Z,15.50
2022-08-31T00:45:03.224Z,15.50
2022-08-31T00:46:03.351Z,15.40
2022-08-31T00:47:03.277Z,15.40
2022-08-31T00:48:03.362Z,15.40
2022-08-31T00:49:03.474Z,15.40
2022-08-31T00:50:03.450Z,15.40
2022-08-31T00:51:03.512Z,15.40
2022-08-31T00:52:03.475Z,15.40
2022-08-31T00:53:03.536Z,15.40
2022-08-31T00:54:03.570Z,15.40
2022-08-31T00:55:02.605Z,15.40
2022-08-31T00:56:02.721Z,15.40
2022-08-31T00:57:02.795Z,15.40
2022-08-31T00:58:02.826Z,15.40
2022-08-31T00:59:02.808Z,15.40
2022-08-31T01:00:02.817Z,15.40
2022-08-31T01:01:02.828Z,15.30
2022-08-31T01:02:03.039Z,15.30
2022-08-31T01:03:02.833Z,15.30
2022-08-31T01:04:03.008Z,15.30
2022-08-31T01:05:02.972Z,15.30
2022-08-31T01:06:03.062Z,15.30
2022-08-31T01:07:03.138Z,15.30
2022-08-31T01:08:02.637Z,15.30
2022-08-31T01:09:02.672Z,15.30
2022-08-31T01:10:02.888Z,15.30
2022-08-31T01:11:02.842Z,15.20
2022-08-31T01:12:02.883Z,15.20
2022-08-31T01:13:03.056Z,15.20
2022-08-31T01:14:03.020Z,15.20
2022-08-31T01:15:03.019Z,15.20
2022-08-31T01:16:03.136Z,15.20
2022-08-31T01:17:03.255Z,15.20
2022-08-31T01:18:03.222Z,15.20
2022-08-31T01:19:03.279Z,15.10
2022-08-31T01:20:03.200Z,15.10
2022-08-31T01:21:03.343Z,15.10
2022-08-31T01:22:03.316Z,15.10
2022-08-31T01:23:03.344Z,15.10
2022-08-31T01:24:03.372Z,15.10
2022-08-31T01:25:03.339Z,15.10
2022-08-31T01:26:03.516Z,15.10
2022-08-31T01:27:03.479Z,15.10
2022-08-31T01:28:03.534Z,15.10
2022-08-31T01:29:02.718Z,15.00
2022-08-31T01:30:02.847Z,15.00
2022-08-31T01:31:02.721Z,15.00
2022-08-31T01:32:02.863Z,15.00
2022-08-31T01:33:02.789Z,15.00
2022-08-31T01:34:02.865Z,15.00
2022-08-31T01:35:02.948Z,15.00
2022-08-31T01:36:02.978Z,15.00
2022-08-31T01:37:03.125Z,15.00
2022-08-31T01:38:03.117Z,15.00
2022-08-31T01:39:03.130Z,15.00
2022-08-31T01:40:03.207Z,15.00
2022-08-31T01:41:03.133Z,15.00
2022-08-31T01:42:03.150Z,14.90
2022-08-31T01:43:03.230Z,14.90
2022-08-31T01:44:03.308Z,14.90
2022-08-31T01:45:03.371Z,14.90
2022-08-31T01:46:03.342Z,14.90
2022-08-31T01:47:03.379Z,14.90
2022-08-31T01:48:03.406Z,14.90
2022-08-31T01:49:02.992Z,14.90
2022-08-31T01:50:02.926Z,14.90
2022-08-31T01:51:03.121Z,14.90
2022-08-31T01:52:03.028Z,14.90
2022-08-31T01:53:03.224Z,14.90
2022-08-31T01:54:03.197Z,14.90
2022-08-31T01:55:03.235Z,14.80
2022-08-31T01:56:03.309Z,14.80
2022-08-31T01:57:03.344Z,14.80
2022-08-31T01:58:03.305Z,14.80
2022-08-31T01:59:07.685Z,14.80
2022-08-31T02:00:03.376Z,14.80
2022-08-31T02:01:03.417Z,14.80
2022-08-31T02:02:02.803Z,14.80
2022-08-31T02:03:02.667Z,14.80
2022-08-31T02:04:02.882Z,14.80
2022-08-31T02:05:02.849Z,14.80
2022-08-31T02:06:03.009Z,14.80
2022-08-31T02:07:02.981Z,14.80
2022-08-31T02:08:03.039Z,14.80
2022-08-31T02:09:03.076Z,14.80
2022-08-31T02:10:03.054Z,14.80
2022-08-31T02:11:03.146Z,14.80
2022-08-31T02:12:03.289Z,14.80
2022-08-31T02:13:03.261Z,14.80
2022-08-31T02:14:03.260Z,14.80
2022-08-31T02:15:03.346Z,14.70
2022-08-31T02:16:03.324Z,14.80
2022-08-31T02:17:02.951Z,14.70
2022-08-31T02:18:02.896Z,14.80
2022-08-31T02:19:02.838Z,14.80
2022-08-31T02:20:02.786Z,14.70
2022-08-31T02:21:02.928Z,14.70
2022-08-31T02:22:02.908Z,14.80
2022-08-31T02:23:02.862Z,14.70
2022-08-31T02:24:03.019Z,14.70
2022-08-31T02:25:03.119Z,14.70
2022-08-31T02:26:03.204Z,14.70
2022-08-31T02:27:03.233Z,14.80
2022-08-31T02:28:03.333Z,14.80
2022-08-31T02:29:03.369Z,14.80
2022-08-31T02:30:03.374Z,14.70
2022-08-31T02:31:03.485Z,14.70
2022-08-31T02:32:03.481Z,14.70
2022-08-31T02:33:03.584Z,14.80
2022-08-31T02:34:03.633Z,14.80
2022-08-31T02:35:02.621Z,14.70
2022-08-31T02:36:02.799Z,14.80
2022-08-31T02:37:02.794Z,14.70
2022-08-31T02:38:02.814Z,14.70
2022-08-31T02:39:02.872Z,14.70
2022-08-31T02:40:02.849Z,14.70
2022-08-31T02:41:02.862Z,14.70
2022-08-31T02:42:02.948Z,14.70
2022-08-31T02:43:03.102Z,14.70
2022-08-31T02:44:03.240Z,14.70
2022-08-31T02:45:03.252Z,14.70
2022-08-31T02:46:03.435Z,14.70
2022-08-31T02:47:03.421Z,14.70
2022-08-31T02:48:03.388Z,14.70
2022-08-31T02:49:03.576Z,14.70
2022-08-31T02:50:03.470Z,14.70
2022-08-31T02:51:03.532Z,14.70
2022-08-31T02:52:03.541Z,14.60
2022-08-31T02:53:03.567Z,14.60
2022-08-31T02:54:02.612Z,14.60
2022-08-31T02:55:02.750Z,14.60
2022-08-31T02:56:02.684Z,14.60
2022-08-31T02:57:02.749Z,14.60
2022-08-31T02:58:02.661Z,14.60
2022-08-31T02:59:02.701Z,14.60
2022-08-31T03:00:02.687Z,14.60
2022-08-31T03:01:02.734Z,14.60
2022-08-31T03:02:02.914Z,14.60
2022-08-31T03:03:02.778Z,14.60
2022-08-31T03:04:02.775Z,14.60
2022-08-31T03:05:02.771Z,14.60
2022-08-31T03:06:02.700Z,14.60
2022-08-31T03:07:02.798Z,14.60
2022-08-31T03:08:02.904Z,14.60
2022-08-31T03:09:02.994Z,14.60
2022-08-31T03:10:03.022Z,14.60
2022-08-31T03:11:03.023Z,14.60
2022-08-31T03:12:02.839Z,14.60
2022-08-31T03:13:02.780Z,14.60
2022-08-31T03:14:02.763Z,14.60
2022-08-31T03:15:03.441Z,14.60
2022-08-31T03:16:03.478Z,14.60
2022-08-31T03:17:03.474Z,14.50
2022-08-31T03:18:06.761Z,14.50
2022-08-31T03:19:03.559Z,14.50
2022-08-31T03:20:02.691Z,14.50
2022-08-31T03:21:02.713Z,14.50
2022-08-31T03:22:02.812Z,14.50
2022-08-31T03:23:02.955Z,14.50
2022-08-31T03:24:02.904Z,14.50
2022-08-31T03:25:03.052Z,14.50
2022-08-31T03:26:03.110Z,14.50
2022-08-31T03:27:03.147Z,14.50
2022-08-31T03:28:03.065Z,14.50
2022-08-31T03:29:03.205Z,14.50
2022-08-31T03:30:03.157Z,14.50
2022-08-31T03:31:03.248Z,14.50
2022-08-31T03:32:03.319Z,14.50
2022-08-31T03:33:03.297Z,14.50
2022-08-31T03:34:03.262Z,14.50
2022-08-31T03:35:03.296Z,14.50
2022-08-31T03:36:03.345Z,14.50
2022-08-31T03:37:03.353Z,14.50
2022-08-31T03:38:03.462Z,14.50
2022-08-31T03:39:03.596Z,14.50
2022-08-31T03:40:03.605Z,14.50
2022-08-31T03:41:02.653Z,14.50
2022-08-31T03:42:02.738Z,14.50
2022-08-31T03:43:02.842Z,14.50
2022-08-31T03:44:02.850Z,14.50
2022-08-31T03:45:02.872Z,14.40
2022-08-31T03:46:02.887Z,14.50
2022-08-31T03:47:02.983Z,14.40
2022-08-31T03:48:02.933Z,14.40
2022-08-31T03:49:02.895Z,14.40
2022-08-31T03:50:02.882Z,14.40
2022-08-31T03:51:02.888Z,14.40
2022-08-31T03:52:02.933Z,14.40
2022-08-31T03:53:02.875Z,14.40
2022-08-31T03:54:02.968Z,14.40
2022-08-31T03:55:03.054Z,14.40
2022-08-31T03:56:02.661Z,14.40
2022-08-31T03:57:02.723Z,14.40
2022-08-31T03:58:02.706Z,14.40
2022-08-31T03:59:02.776Z,14.30
2022-08-31T04:00:02.782Z,14.30
2022-08-31T04:01:02.780Z,14.30
2022-08-31T04:02:03.177Z,14.30
2022-08-31T04:03:03.327Z,14.30
2022-08-31T04:04:03.270Z,14.30
2022-08-31T04:05:03.352Z,14.30
2022-08-31T04:06:03.265Z,14.30
2022-08-31T04:07:03.392Z,14.30
2022-08-31T04:08:03.427Z,14.30
2022-08-31T04:09:03.464Z,14.30
2022-08-31T04:10:03.530Z,14.30
2022-08-31T04:11:03.576Z,14.30
2022-08-31T04:12:02.782Z,14.30
2022-08-31T04:13:02.857Z,14.30
2022-08-31T04:14:02.974Z,14.30
2022-08-31T04:15:03.042Z,14.30
2022-08-31T04:16:03.103Z,14.30
2022-08-31T04:17:03.219Z,14.30
2022-08-31T04:18:03.283Z,14.30
2022-08-31T04:19:03.396Z,14.30
2022-08-31T04:20:03.397Z,14.30
2022-08-31T04:21:03.342Z,14.30
2022-08-31T04:22:03.343Z,14.30
2022-08-31T04:23:03.441Z,14.30
2022-08-31T04:24:03.539Z,14.30
2022-08-31T04:25:02.855Z,14.40
2022-08-31T04:26:02.839Z,14.40
2022-08-31T04:27:02.987Z,14.30
2022-08-31T04:28:03.096Z,14.40
2022-08-31T04:29:03.103Z,14.30
2022-08-31T04:30:03.084Z,14.30
2022-08-31T04:31:03.223Z,14.30
2022-08-31T04:32:03.206Z,14.30
2022-08-31T04:33:03.229Z,14.30
2022-08-31T04:34:03.399Z,14.30
2022-08-31T04:35:03.403Z,14.30
2022-08-31T04:36:03.492Z,14.30
2022-08-31T04:37:03.424Z,14.30
2022-08-31T04:38:03.601Z,14.30
2022-08-31T04:39:03.518Z,14.30
2022-08-31T04:40:02.680Z,14.30
2022-08-31T04:41:02.656Z,14.30
2022-08-31T04:42:02.753Z,14.30
2022-08-31T04:43:02.714Z,14.30
2022-08-31T04:44:02.810Z,14.30
2022-08-31T04:45:02.760Z,14.30
2022-08-31T04:46:02.845Z,14.30
2022-08-31T04:47:02.803Z,14.30
2022-08-31T04:48:03.241Z,14.30
2022-08-31T04:49:03.603Z,14.30
2022-08-31T04:50:03.570Z,14.30
2022-08-31T04:51:02.797Z,14.30
2022-08-31T04:52:03.088Z,14.30
2022-08-31T04:53:03.280Z,14.30
2022-08-31T04:54:02.874Z,14.30
2022-08-31T04:55:03.353Z,14.30
2022-08-31T04:56:03.401Z,14.30
2022-08-31T04:57:02.675Z,14.30
2022-08-31T04:58:02.616Z,14.30
2022-08-31T04:59:02.709Z,14.30
2022-08-31T05:00:02.876Z,14.30
2022-08-31T05:01:02.807Z,14.30
2022-08-31T05:02:03.442Z,14.30
2022-08-31T05:03:03.448Z,14.30
2022-08-31T05:04:03.569Z,14.40
2022-08-31T05:05:03.542Z,14.40
2022-08-31T05:06:03.853Z,14.40
2022-08-31T05:07:02.772Z,14.40
2022-08-31T05:08:02.765Z,14.40
2022-08-31T05:09:03.512Z,14.40
2022-08-31T05:10:03.628Z,14.40
2022-08-31T05:11:03.563Z,14.40
2022-08-31T05:12:02.713Z,14.40
2022-08-31T05:13:02.798Z,14.40
2022-08-31T05:14:02.855Z,14.40
2022-08-31T05:15:02.878Z,14.40
2022-08-31T05:16:02.930Z,14.40
2022-08-31T05:17:02.893Z,14.50
2022-08-31T05:18:02.794Z,14.50
2022-08-31T05:19:02.974Z,14.50
2022-08-31T05:20:03.051Z,14.50
2022-08-31T05:21:03.096Z,14.50
2022-08-31T05:22:03.038Z,14.50
2022-08-31T05:23:03.098Z,14.50
2022-08-31T05:24:03.067Z,14.50
2022-08-31T05:25:03.060Z,14.50
2022-08-31T05:26:03.083Z,14.50
2022-08-31T05:27:03.112Z,14.50
2022-08-31T05:28:03.175Z,14.50
2022-08-31T05:29:03.088Z,14.50
2022-08-31T05:30:03.136Z,14.50
2022-08-31T05:31:03.209Z,14.50
2022-08-31T05:32:03.293Z,14.50
2022-08-31T05:33:03.230Z,14.50
2022-08-31T05:34:03.412Z,14.50
2022-08-31T05:35:03.340Z,14.60
2022-08-31T05:36:03.252Z,14.60
2022-08-31T05:37:03.251Z,14.60
2022-08-31T05:38:03.326Z,14.60
2022-08-31T05:39:03.380Z,14.60
2022-08-31T05:40:03.509Z,14.60
2022-08-31T05:41:03.466Z,14.60
2022-08-31T05:42:03.438Z,14.60
2022-08-31T05:43:03.520Z,14.60
2022-08-31T05:44:02.682Z,14.70
2022-08-31T05:45:02.699Z,14.70
2022-08-31T05:46:05.559Z,14.70
2022-08-31T05:47:03.726Z,14.70
2022-08-31T05:48:02.821Z,14.70
2022-08-31T05:49:02.811Z,14.70
2022-08-31T05:50:02.805Z,14.80
2022-08-31T05:51:02.991Z,14.80
2022-08-31T05:52:02.892Z,14.80
2022-08-31T05:53:02.843Z,14.80
2022-08-31T05:54:02.903Z,14.80
2022-08-31T05:55:03.527Z,14.80
2022-08-31T05:56:03.487Z,14.80
2022-08-31T05:57:03.548Z,14.80
2022-08-31T05:58:03.556Z,14.80
2022-08-31T05:59:03.512Z,14.80
2022-08-31T06:00:03.679Z,14.80
2022-08-31T06:01:02.722Z,14.80
2022-08-31T06:02:02.766Z,14.90
2022-08-31T06:03:02.893Z,14.90
2022-08-31T06:04:02.937Z,14.90
2022-08-31T06:05:03.622Z,14.90
2022-08-31T06:06:03.517Z,14.90
2022-08-31T06:07:02.614Z,14.90
2022-08-31T06:08:02.727Z,15.00
2022-08-31T06:09:02.743Z,15.00
2022-08-31T06:10:02.827Z,15.00
2022-08-31T06:11:02.755Z,15.00
2022-08-31T06:12:02.778Z,15.00
2022-08-31T06:13:03.908Z,15.00
2022-08-31T06:14:02.933Z,15.00
2022-08-31T06:15:02.930Z,15.00
2022-08-31T06:16:03.030Z,15.00
2022-08-31T06:17:03.137Z,15.10
2022-08-31T06:18:03.248Z,15.10
2022-08-31T06:19:03.234Z,15.10
2022-08-31T06:20:03.369Z,15.10
2022-08-31T06:21:03.412Z,15.10
2022-08-31T06:22:03.503Z,15.10
2022-08-31T06:23:03.445Z,15.10
2022-08-31T06:24:03.399Z,15.10
2022-08-31T06:25:03.458Z,15.10
2022-08-31T06:26:03.457Z,15.10
2022-08-31T06:27:03.590Z,15.20
2022-08-31T06:28:03.591Z,15.20
2022-08-31T06:29:02.647Z,15.20
2022-08-31T06:30:03.758Z,15.20
2022-08-31T06:31:02.798Z,15.20
2022-08-31T06:32:02.863Z,15.20
2022-08-31T06:33:03.004Z,15.20
2022-08-31T06:34:02.986Z,15.20
2022-08-31T06:35:03.091Z,15.20
2022-08-31T06:36:03.127Z,15.20
2022-08-31T06:37:03.133Z,15.20
2022-08-31T06:38:03.218Z,15.20
2022-08-31T06:39:03.175Z,15.20
2022-08-31T06:40:03.306Z,15.20
2022-08-31T06:41:03.338Z,15.20
2022-08-31T06:42:03.404Z,15.20
2022-08-31T06:43:03.439Z,15.30
2022-08-31T06:44:03.434Z,15.30
2022-08-31T06:45:03.441Z,15.30
2022-08-31T06:46:03.347Z,15.30
2022-08-31T06:47:03.484Z,15.30
2022-08-31T06:48:03.483Z,15.30
2022-08-31T06:49:03.448Z,15.40
2022-08-31T06:50:03.477Z,15.40
2022-08-31T06:51:03.542Z,15.40
2022-08-31T06:52:03.644Z,15.40
2022-08-31T06:53:03.633Z,15.40
2022-08-31T06:54:16.297Z,15.40
2022-08-31T06:55:02.682Z,15.40
2022-08-31T06:56:02.680Z,15.40
2022-08-31T06:57:02.821Z,15.40
2022-08-31T06:58:03.589Z,15.40
2022-08-31T06:59:02.702Z,15.40
2022-08-31T07:00:02.718Z,15.40
2022-08-31T07:01:02.719Z,15.40
2022-08-31T07:02:03.655Z,15.40
2022-08-31T07:03:03.704Z,15.40
2022-08-31T07:04:02.622Z,15.40
2022-08-31T07:05:02.770Z,15.40
2022-08-31T07:06:02.876Z,15.40
2022-08-31T07:07:02.886Z,15.40
2022-08-31T07:08:02.793Z,15.40
2022-08-31T07:09:02.903Z,15.40
2022-08-31T07:10:02.925Z,15.50
2022-08-31T07:11:02.924Z,15.50
2022-08-31T07:12:02.903Z,15.50
2022-08-31T07:13:02.916Z,15.50
2022-08-31T07:14:02.954Z,15.50
2022-08-31T07:15:02.915Z,15.50
2022-08-31T07:16:02.928Z,15.50
2022-08-31T07:17:03.022Z,15.50
2022-08-31T07:18:05.209Z,15.60
2022-08-31T07:19:02.971Z,15.60
2022-08-31T07:20:02.939Z,15.60
2022-08-31T07:21:02.980Z,15.60
2022-08-31T07:22:02.968Z,15.60
2022-08-31T07:23:03.032Z,15.60
2022-08-31T07:24:02.715Z,15.60
2022-08-31T07:25:02.725Z,15.70
2022-08-31T07:26:02.869Z,15.70
2022-08-31T07:27:02.810Z,15.70
2022-08-31T07:28:02.865Z,15.70
2022-08-31T07:29:02.878Z,15.70
2022-08-31T07:30:02.849Z,15.70
2022-08-31T07:31:02.994Z,15.70
2022-08-31T07:32:02.869Z,15.70
2022-08-31T07:33:02.844Z,15.70
2022-08-31T07:34:02.919Z,15.70
2022-08-31T07:35:03.028Z,15.80
2022-08-31T07:36:03.085Z,15.80
2022-08-31T07:37:03.164Z,15.80
2022-08-31T07:38:03.121Z,15.80
2022-08-31T07:39:03.072Z,15.80
2022-08-31T07:40:06.993Z,15.80
2022-08-31T07:41:02.792Z,15.80
2022-08-31T07:42:02.790Z,15.80
2022-08-31T07:43:02.873Z,15.80
2022-08-31T07:44:02.966Z,15.80
2022-08-31T07:45:03.078Z,15.80
2022-08-31T07:46:03.015Z,15.80
2022-08-31T07:47:03.007Z,15.80
2022-08-31T07:48:03.053Z,15.80
2022-08-31T07:49:02.964Z,15.80
2022-08-31T07:50:02.963Z,15.80
2022-08-31T07:51:02.967Z,15.80
2022-08-31T07:52:03.017Z,15.90
2022-08-31T07:53:02.992Z,15.90
2022-08-31T07:54:03.063Z,15.80
2022-08-31T07:55:03.022Z,15.90
2022-08-31T07:56:03.093Z,15.90
2022-08-31T07:57:03.141Z,15.90
2022-08-31T07:58:03.027Z,15.90
2022-08-31T07:59:03.122Z,15.90
2022-08-31T08:00:03.213Z,15.90
2022-08-31T08:01:03.242Z,15.90
2022-08-31T08:02:03.285Z,15.90
2022-08-31T08:03:03.288Z,16.00
2022-08-31T08:04:03.630Z,16.00
2022-08-31T08:05:03.456Z,16.00
2022-08-31T08:06:03.141Z,16.00
2022-08-31T08:07:02.617Z,16.00
2022-08-31T08:08:02.687Z,16.10
2022-08-31T08:09:21.830Z,16.10
2022-08-31T08:10:03.357Z,16.10
2022-08-31T08:11:03.359Z,16.20
2022-08-31T08:12:03.343Z,16.20
2022-08-31T08:13:04.199Z,16.30
2022-08-31T08:14:06.621Z,16.30
2022-08-31T08:15:03.546Z,16.40
2022-08-31T08:16:03.592Z,16.40
2022-08-31T08:17:03.677Z,16.50
2022-08-31T08:18:03.617Z,16.50
2022-08-31T08:19:03.565Z,16.50
2022-08-31T08:20:03.531Z,16.60
2022-08-31T08:21:03.622Z,16.70
2022-08-31T08:22:02.725Z,16.70
2022-08-31T08:23:02.649Z,16.80
2022-08-31T08:24:02.707Z,16.80
2022-08-31T08:25:02.650Z,16.90
2022-08-31T08:26:02.660Z,17.00
2022-08-31T08:27:02.609Z,17.00
2022-08-31T08:28:12.691Z,17.10
2022-08-31T08:29:02.708Z,17.10
2022-08-31T08:30:02.659Z,17.20
2022-08-31T08:31:02.761Z,17.20
2022-08-31T08:32:02.712Z,17.30
2022-08-31T08:33:02.606Z,17.30
2022-08-31T08:34:02.684Z,17.40
2022-08-31T08:35:02.681Z,17.40
2022-08-31T08:36:02.594Z,17.40
2022-08-31T08:37:02.737Z,17.40
2022-08-31T08:38:07.118Z,17.50
2022-08-31T08:39:02.784Z,17.50
2022-08-31T08:40:02.847Z,17.50
2022-08-31T08:41:02.937Z,17.50
2022-08-31T08:42:02.875Z,17.50
2022-08-31T08:43:02.911Z,17.60
2022-08-31T08:44:02.816Z,17.60
2022-08-31T08:45:03.001Z,17.60
2022-08-31T08:46:15.083Z,17.60
2022-08-31T08:47:03.002Z,17.60
2022-08-31T08:48:03.135Z,17.60
2022-08-31T08:49:03.027Z,17.70
2022-08-31T08:50:03.038Z,17.70
2022-08-31T08:51:03.017Z,17.70
2022-08-31T08:52:03.219Z,17.70
2022-08-31T08:53:03.211Z,17.70
2022-08-31T08:54:03.186Z,17.80
2022-08-31T08:55:03.233Z,17.80
2022-08-31T08:56:17.408Z,17.90
2022-08-31T08:57:03.323Z,17.90
2022-08-31T08:58:03.318Z,18.00
2022-08-31T08:59:04.578Z,18.00
2022-08-31T09:00:03.439Z,18.00
2022-08-31T09:01:03.532Z,18.10
2022-08-31T09:02:03.661Z,18.10
2022-08-31T09:03:02.688Z,18.10
2022-08-31T09:04:02.648Z,18.20
2022-08-31T09:05:02.790Z,18.20
2022-08-31T09:06:02.744Z,18.20
2022-08-31T09:07:02.917Z,18.20
2022-08-31T09:08:02.794Z,18.20
2022-08-31T09:09:02.979Z,18.20
2022-08-31T09:10:02.955Z,18.30
2022-08-31T09:11:02.970Z,18.30
2022-08-31T09:12:03.004Z,18.30
2022-08-31T09:13:03.108Z,18.30
2022-08-31T09:14:03.082Z,18.30
2022-08-31T09:15:03.095Z,18.30
2022-08-31T09:16:03.100Z,18.30
2022-08-31T09:17:03.188Z,18.30
2022-08-31T09:18:03.119Z,18.30
2022-08-31T09:19:03.169Z,18.30
2022-08-31T09:20:03.351Z,18.40
2022-08-31T09:21:03.212Z,18.40
2022-08-31T09:22:03.366Z,18.40
2022-08-31T09:23:03.409Z,18.40
2022-08-31T09:24:03.371Z,18.50
2022-08-31T09:25:03.427Z,18.50
2022-08-31T09:26:07.638Z,18.50
2022-08-31T09:27:03.551Z,18.60
2022-08-31T09:28:02.782Z,18.60
2022-08-31T09:29:02.721Z,18.70
2022-08-31T09:30:02.641Z,18.80
2022-08-31T09:31:02.819Z,18.80
2022-08-31T09:32:06.236Z,18.90
2022-08-31T09:33:03.217Z,18.90
2022-08-31T09:34:03.240Z,18.90
2022-08-31T09:35:03.297Z,19.00
2022-08-31T09:36:03.387Z,19.00
2022-08-31T09:37:03.446Z,19.10
2022-08-31T09:38:03.462Z,19.10
2022-08-31T09:39:03.522Z,19.10
2022-08-31T09:40:07.269Z,19.10
2022-08-31T09:41:03.548Z,19.20
2022-08-31T09:42:02.702Z,19.20
2022-08-31T09:43:02.678Z,19.20
2022-08-31T09:44:02.603Z,19.20
2022-08-31T09:45:03.624Z,19.10
2022-08-31T09:46:02.767Z,19.10
2022-08-31T09:47:02.840Z,19.10
2022-08-31T09:48:02.768Z,19.10
2022-08-31T09:49:02.734Z,19.10
2022-08-31T09:50:02.718Z,19.10
2022-08-31T09:51:02.885Z,19.10
2022-08-31T09:52:02.946Z,19.00
2022-08-31T09:53:03.047Z,19.00
2022-08-31T09:54:03.150Z,19.00
2022-08-31T09:55:03.204Z,19.00
2022-08-31T09:56:03.269Z,19.00
2022-08-31T09:57:03.389Z,19.00
2022-08-31T09:58:03.306Z,19.00
2022-08-31T09:59:03.400Z,19.00
2022-08-31T10:00:03.341Z,19.00
2022-08-31T10:01:03.375Z,19.00
2022-08-31T10:02:04.998Z,19.00
2022-08-31T10:03:06.511Z,19.00
2022-08-31T10:04:03.303Z,19.00
2022-08-31T10:05:03.420Z,19.00
2022-08-31T10:06:03.490Z,19.00
2022-08-31T10:07:03.485Z,19.00
2022-08-31T10:08:03.549Z,19.00
2022-08-31T10:09:02.768Z,19.00
2022-08-31T10:10:02.881Z,19.00
2022-08-31T10:11:02.906Z,19.00
2022-08-31T10:12:02.946Z,19.00
2022-08-31T10:13:03.130Z,19.00
2022-08-31T10:14:03.090Z,19.00
2022-08-31T10:15:03.100Z,19.00
2022-08-31T10:16:03.094Z,19.00
2022-08-31T10:17:03.322Z,19.00
2022-08-31T10:18:03.186Z,19.00
2022-08-31T10:19:02.867Z,19.00
2022-08-31T10:20:02.937Z,19.00
2022-08-31T10:21:02.892Z,19.00
2022-08-31T10:22:03.089Z,19.00
2022-08-31T10:23:02.990Z,19.00
2022-08-31T10:24:03.112Z,19.00
2022-08-31T10:25:02.995Z,19.00
2022-08-31T10:26:03.059Z,19.00
2022-08-31T10:27:03.061Z,19.00
2022-08-31T10:28:03.119Z,19.00
2022-08-31T10:29:03.099Z,19.00
2022-08-31T10:30:03.073Z,19.00
2022-08-31T10:31:03.174Z,19.10
2022-08-31T10:32:03.258Z,19.10
2022-08-31T10:33:03.419Z,19.10
2022-08-31T10:34:03.638Z,19.10
2022-08-31T10:35:03.436Z,19.10
2022-08-31T10:36:03.453Z,19.10
2022-08-31T10:37:03.589Z,19.10
2022-08-31T10:38:03.534Z,19.10
2022-08-31T10:39:02.634Z,19.10
2022-08-31T10:40:03.640Z,19.10
2022-08-31T10:41:02.714Z,19.10
2022-08-31T10:42:02.774Z,19.10
2022-08-31T10:43:02.821Z,19.10
2022-08-31T10:44:02.715Z,19.10
2022-08-31T10:45:02.694Z,19.10
2022-08-31T10:46:02.708Z,19.10
2022-08-31T10:47:02.917Z,19.10
2022-08-31T10:48:02.814Z,19.10
2022-08-31T10:49:02.833Z,19.10
2022-08-31T10:50:02.955Z,19.20
2022-08-31T10:51:02.908Z,19.20
2022-08-31T10:52:03.022Z,19.20
2022-08-31T10:53:03.011Z,19.20
2022-08-31T10:54:03.116Z,19.30
2022-08-31T10:55:03.145Z,19.30
2022-08-31T10:56:03.217Z,19.30
2022-08-31T10:57:03.274Z,19.40
2022-08-31T10:58:03.301Z,19.40
2022-08-31T10:59:03.352Z,19.40
2022-08-31T11:00:03.280Z,19.50
2022-08-31T11:01:03.301Z,19.50
2022-08-31T11:02:03.205Z,19.50
2022-08-31T11:03:03.403Z,19.50
2022-08-31T11:04:03.459Z,19.50
2022-08-31T11:05:03.474Z,19.50
2022-08-31T11:06:03.512Z,19.50
2022-08-31T11:07:03.499Z,19.50
2022-08-31T11:08:03.575Z,19.50
2022-08-31T11:09:03.539Z,19.50
2022-08-31T11:10:02.713Z,19.50
2022-08-31T11:11:02.658Z,19.50
2022-08-31T11:12:02.753Z,19.50
2022-08-31T11:13:02.784Z,19.60
2022-08-31T11:14:02.809Z,19.60
2022-08-31T11:15:02.806Z,19.60
2022-08-31T11:16:02.981Z,19.60
2022-08-31T11:17:02.923Z,19.60
2022-08-31T11:18:03.060Z,19.70
2022-08-31T11:19:06.049Z,19.70
2022-08-31T11:20:03.091Z,19.70
2022-08-31T11:21:03.110Z,19.70
2022-08-31T11:22:03.059Z,19.70
2022-08-31T11:23:03.162Z,19.70
2022-08-31T11:24:03.200Z,19.70
2022-08-31T11:25:03.252Z,19.70
2022-08-31T11:26:03.362Z,19.70
2022-08-31T11:27:03.446Z,19.70
2022-08-31T11:28:03.589Z,19.70
2022-08-31T11:29:02.673Z,19.70
2022-08-31T11:30:02.766Z,19.70
2022-08-31T11:31:02.941Z,19.70
2022-08-31T11:32:02.943Z,19.80
2022-08-31T11:33:03.061Z,19.80
2022-08-31T11:34:15.791Z,19.80
2022-08-31T11:35:03.143Z,19.80
2022-08-31T11:36:06.568Z,19.90
2022-08-31T11:37:03.197Z,19.90
2022-08-31T11:38:03.217Z,19.90
2022-08-31T11:39:03.282Z,19.90
2022-08-31T11:40:03.479Z,19.90
2022-08-31T11:41:03.403Z,20.00
2022-08-31T11:42:02.680Z,20.00
2022-08-31T11:43:02.757Z,20.00
2022-08-31T11:44:02.874Z,20.00
2022-08-31T11:45:02.783Z,20.00
2022-08-31T11:46:02.901Z,20.00
2022-08-31T11:47:04.363Z,20.00
2022-08-31T11:48:02.759Z,20.00
2022-08-31T11:49:02.910Z,20.00
2022-08-31T11:50:03.097Z,20.00
2022-08-31T11:51:03.044Z,20.00
2022-08-31T11:52:03.035Z,20.00
2022-08-31T11:53:03.121Z,20.00
2022-08-31T11:54:03.122Z,19.90
2022-08-31T11:55:03.194Z,19.90
2022-08-31T11:56:03.318Z,19.90
2022-08-31T11:57:03.287Z,19.90
2022-08-31T11:58:03.388Z,19.90
2022-08-31T11:59:03.424Z,19.90
2022-08-31T12:00:03.449Z,19.90
2022-08-31T12:01:03.432Z,19.90
2022-08-31T12:02:03.387Z,19.90
2022-08-31T12:03:03.527Z,20.00
2022-08-31T12:04:03.738Z,20.00
2022-08-31T12:05:03.723Z,20.00
2022-08-31T12:06:03.628Z,20.00
2022-08-31T12:07:02.759Z,20.00
2022-08-31T12:08:02.692Z,20.00
2022-08-31T12:09:02.807Z,20.00
2022-08-31T12:10:02.746Z,20.00
2022-08-31T12:11:02.725Z,20.00
2022-08-31T12:12:02.799Z,20.00
2022-08-31T12:13:02.884Z,20.00
2022-08-31T12:14:02.891Z,20.00
2022-08-31T12:15:02.874Z,20.00
2022-08-31T12:16:02.893Z,20.00
2022-08-31T12:17:02.900Z,20.00
2022-08-31T12:18:02.882Z,20.00
2022-08-31T12:19:02.772Z,20.00
2022-08-31T12:20:02.900Z,20.00
2022-08-31T12:21:02.826Z,20.00
2022-08-31T12:22:02.796Z,20.00
2022-08-31T12:23:02.855Z,20.00
2022-08-31T12:24:02.823Z,20.00
2022-08-31T12:25:02.908Z,20.00
2022-08-31T12:26:02.843Z,20.00
2022-08-31T12:27:02.881Z,20.00
2022-08-31T12:28:02.854Z,20.00
2022-08-31T12:29:02.781Z,20.00
2022-08-31T12:30:02.874Z,20.00
2022-08-31T12:31:03.014Z,20.00
2022-08-31T12:32:04.616Z,20.10
2022-08-31T12:33:02.911Z,20.10
2022-08-31T12:34:03.130Z,20.10
2022-08-31T12:35:03.026Z,20.10
2022-08-31T12:36:03.034Z,20.10
2022-08-31T12:37:03.150Z,20.10
2022-08-31T12:38:03.215Z,20.10
2022-08-31T12:39:03.391Z,20.10
2022-08-31T12:40:03.492Z,20.10
2022-08-31T12:41:03.612Z,20.10
2022-08-31T12:42:02.662Z,20.10
2022-08-31T12:43:02.750Z,20.10
2022-08-31T12:44:03.770Z,20.10
2022-08-31T12:45:02.839Z,20.20
2022-08-31T12:46:03.034Z,20.20
2022-08-31T12:47:03.077Z,20.20
2022-08-31T12:48:03.053Z,20.20
2022-08-31T12:49:03.080Z,20.20
2022-08-31T12:50:03.186Z,20.20
2022-08-31T12:51:03.257Z,20.20
2022-08-31T12:52:03.270Z,20.30